Time;durP1;ratioP1;P1;durP2;ratioP2;P2;SDS_P1;SDS_P2;PMS_P1;PMS_P2;Temp;Humidity;BMP_temperature;BMP_pressure;BME280_temperature;BME280_humidity;BME280_pressure;Samples;Min_cycle;Max_cycle;Signal;HPM_P1;HPM_P2
2023/03/22 00:00:01;;;;;;;75.57;44.45;;;;;;;6.94;64.75;100552.78;1742609;82;21177;-60
2023/03/22 00:03:07;;;;;;;79.65;45.33;;;;;;;6.94;64.79;100553.64;1742439;82;21177;-61
2023/03/22 00:06:15;;;;;;;81.53;46.80;;;;;;;6.94;64.83;100558.22;1742378;81;21169;-60
2023/03/22 00:09:23;;;;;;;79.90;46.75;;;;;;;6.91;64.80;100560.72;1735882;82;21197;-62
2023/03/22 00:12:23;;;;;;;81.37;45.48;;;;;;;6.87;64.70;100559.31;1742365;81;21745;-62
2023/03/22 00:15:29;;;;;;;77.10;44.95;;;;;;;6.82;64.60;100551.25;1755029;81;21213;-61
2023/03/22 00:18:35;;;;;;;74.45;43.45;;;;;;;6.76;64.54;100549.09;1740830;81;21240;-60
2023/03/22 00:21:41;;;;;;;74.85;41.53;;;;;;;6.69;64.66;100554.27;1741620;81;21264;-61
2023/03/22 00:24:47;;;;;;;68.80;41.88;;;;;;;6.61;64.67;100548.70;1740455;82;21797;-60
2023/03/22 00:27:53;;;;;;;85.72;43.95;;;;;;;6.58;64.77;100554.44;1740706;82;21225;-61
2023/03/22 00:31:02;;;;;;;75.65;42.53;;;;;;;6.60;64.98;100555.16;1740815;81;21290;-61
2023/03/22 00:34:10;;;;;;;74.72;42.40;;;;;;;6.62;65.12;100553.65;1741030;82;21285;-61
2023/03/22 00:37:15;;;;;;;71.57;41.75;;;;;;;6.59;65.00;100558.89;1740552;81;21201;-62
2023/03/22 00:40:21;;;;;;;70.45;40.88;;;;;;;6.53;65.06;100559.97;1740841;81;21427;-61
2023/03/22 00:43:28;;;;;;;84.62;43.75;;;;;;;6.47;65.00;100558.68;1741343;82;21193;-61
2023/03/22 00:46:33;;;;;;;70.60;41.55;;;;;;;6.48;65.15;100568.57;1753799;80;21387;-61
2023/03/22 00:49:41;;;;;;;72.75;40.52;;;;;;;6.49;65.35;100560.76;1740726;82;21162;-60
2023/03/22 00:52:49;;;;;;;70.17;40.67;;;;;;;6.50;65.42;100564.34;1741184;82;21363;-60
2023/03/22 00:55:55;;;;;;;71.15;41.13;;;;;;;6.43;65.35;100558.63;1740765;81;21331;-61
2023/03/22 00:59:12;;;;;;;65.90;39.15;;;;;;;6.44;65.47;100559.50;1740675;82;21327;-61
2023/03/22 01:02:18;;;;;;;71.07;39.70;;;;;;;6.42;65.48;100556.92;1740711;81;21209;-62
2023/03/22 01:05:25;;;;;;;67.58;39.95;;;;;;;6.35;65.35;100557.13;1740492;81;21208;-60
2023/03/22 01:08:33;;;;;;;67.97;39.95;;;;;;;6.32;65.29;100568.79;1752659;81;21331;-61
2023/03/22 01:11:40;;;;;;;63.90;38.53;;;;;;;6.28;65.30;100570.94;1740537;81;21253;-60
2023/03/22 01:14:46;;;;;;;70.28;41.85;;;;;;;6.25;65.34;100566.31;1740886;82;21193;-61
2023/03/22 01:17:54;;;;;;;69.58;42.10;;;;;;;6.21;65.42;100569.81;1740522;81;21213;-61
2023/03/22 01:20:59;;;;;;;72.67;42.98;;;;;;;6.20;65.53;100574.03;1743817;81;21199;-60
2023/03/22 01:24:04;;;;;;;68.37;42.58;;;;;;;6.17;65.65;100571.60;1735954;81;21176;-61
2023/03/22 01:27:10;;;;;;;78.15;43.10;;;;;;;6.18;65.84;100572.81;1736087;82;21287;-60
2023/03/22 01:30:17;;;;;;;78.42;42.17;;;;;;;6.19;65.96;100576.37;1736115;81;21252;-61
2023/03/22 01:33:23;;;;;;;67.62;41.18;;;;;;;6.19;66.02;100577.23;1736046;82;21197;-62
2023/03/22 01:36:28;;;;;;;73.67;43.13;;;;;;;6.18;66.03;100578.25;1736133;81;21402;-61
2023/03/22 01:39:34;;;;;;;78.07;43.55;;;;;;;6.16;66.02;100574.81;1736143;81;21208;-61
2023/03/22 01:42:39;;;;;;;69.42;41.90;;;;;;;6.15;66.01;100575.83;1736120;82;21427;-61
2023/03/22 01:45:50;;;;;;;72.20;41.95;;;;;;;6.13;66.04;100579.18;1736078;82;21189;-60
2023/03/22 01:48:57;;;;;;;69.17;43.48;;;;;;;6.13;66.11;100590.05;1735999;81;21239;-61
2023/03/22 01:52:13;;;;;;;73.57;45.10;;;;;;;6.15;66.22;100583.11;1735996;82;21321;-62
2023/03/22 01:55:21;;;;;;;76.47;43.65;;;;;;;6.17;66.25;100589.27;1736173;81;21418;-62
2023/03/22 01:58:34;;;;;;;75.17;44.65;;;;;;;6.16;66.21;100589.77;1736019;81;21256;-61
2023/03/22 02:01:41;;;;;;;79.92;45.95;;;;;;;6.12;66.18;100599.70;1736049;81;21402;-62
2023/03/22 02:04:49;;;;;;;75.97;45.48;;;;;;;6.13;66.40;100594.13;1735841;82;21185;-61
2023/03/22 02:07:55;;;;;;;74.42;44.20;;;;;;;6.20;66.54;100593.06;1736262;82;21564;-62
2023/03/22 02:11:03;;;;;;;72.30;43.00;;;;;;;6.25;66.60;100594.33;1734064;82;21212;-62
2023/03/22 02:14:39;;;;;;;69.80;42.80;;;;;;;6.28;66.65;100591.32;1710590;82;21315;-61
2023/03/22 02:18:06;;;;;;;69.80;42.38;;;;;;;6.33;66.67;100589.56;1736233;82;21200;-61
2023/03/22 02:21:36;;;;;;;71.67;39.73;;;;;;;6.34;66.66;100588.55;1735949;82;21204;-63
2023/03/22 02:24:57;;;;;;;71.65;41.88;;;;;;;6.35;66.69;100585.68;1735963;82;21197;-62
2023/03/22 02:28:32;;;;;;;71.40;44.03;;;;;;;6.36;66.71;100587.38;1735632;81;21188;-61
2023/03/22 02:32:14;;;;;;;70.85;42.38;;;;;;;6.37;66.76;100585.53;1736144;82;21366;-60
2023/03/22 02:35:49;;;;;;;69.90;42.67;;;;;;;6.39;66.83;100586.26;1736091;82;21224;-60
2023/03/22 02:39:15;;;;;;;67.62;40.65;;;;;;;6.36;66.70;100596.06;1736049;81;21185;-61
2023/03/22 02:42:27;;;;;;;70.70;41.55;;;;;;;6.27;66.58;100597.77;1736165;82;21326;-61
2023/03/22 02:45:55;;;;;;;67.82;40.88;;;;;;;6.29;66.76;100598.98;1736087;81;21347;-60
2023/03/22 02:49:18;;;;;;;68.10;41.85;;;;;;;6.32;66.86;100611.80;1735943;81;21235;-61
2023/03/22 02:52:38;;;;;;;72.65;41.95;;;;;;;6.35;66.83;100607.43;1735992;81;21196;-61
2023/03/22 02:56:01;;;;;;;73.57;44.30;;;;;;;6.25;66.57;100613.88;1735819;82;21199;-60
2023/03/22 02:59:10;;;;;;;72.10;44.83;;;;;;;6.25;66.77;100610.64;1735896;82;21188;-60
2023/03/22 03:02:19;;;;;;;77.37;45.15;;;;;;;6.32;67.00;100610.44;1735995;82;21354;-60
2023/03/22 03:05:25;;;;;;;77.10;45.78;;;;;;;6.32;66.82;100613.16;1735980;81;21439;-61
2023/03/22 03:08:31;;;;;;;80.17;47.17;;;;;;;6.26;66.70;100621.02;1736176;81;21256;-61
2023/03/22 03:11:38;;;;;;;76.10;44.65;;;;;;;6.26;66.79;100625.10;1736036;82;21204;-60
2023/03/22 03:14:44;;;;;;;70.35;43.90;;;;;;;6.32;67.00;100626.75;1736204;82;21185;-60
2023/03/22 03:18:12;;;;;;;73.85;43.70;;;;;;;6.39;67.14;100627.04;1736072;81;21240;-61
2023/03/22 03:21:41;;;;;;;77.55;44.08;;;;;;;6.44;67.22;100625.59;1735603;82;21693;-60
2023/03/22 03:24:51;;;;;;;67.40;42.95;;;;;;;6.48;67.25;100625.67;1735784;82;21232;-61
2023/03/22 03:28:28;;;;;;;76.15;43.38;;;;;;;6.52;67.27;100632.53;1735603;82;21212;-60
2023/03/22 03:32:10;;;;;;;77.30;46.23;;;;;;;6.55;67.31;100625.97;1736219;82;21208;-60
2023/03/22 03:35:26;;;;;;;73.57;42.60;;;;;;;6.59;67.36;100636.89;1735673;82;21268;-59
2023/03/22 03:38:37;;;;;;;69.03;43.30;;;;;;;6.62;67.39;100633.39;1735585;82;21181;-61
2023/03/22 03:41:43;;;;;;;73.52;44.25;;;;;;;6.65;67.43;100630.88;1735861;81;21235;-62
2023/03/22 03:44:50;;;;;;;70.30;43.28;;;;;;;6.67;67.37;100641.98;1735533;81;21288;-62
2023/03/22 03:47:55;;;;;;;69.87;42.30;;;;;;;6.65;67.20;100643.98;1735864;82;21212;-61
2023/03/22 03:51:03;;;;;;;67.92;43.63;;;;;;;6.57;66.96;100643.84;1735867;82;21184;-60
2023/03/22 03:54:09;;;;;;;74.87;45.03;;;;;;;6.46;66.75;100652.15;1735700;81;21229;-60
2023/03/22 03:57:16;;;;;;;72.60;45.58;;;;;;;6.31;66.67;100655.44;1735922;82;21204;-62
2023/03/22 04:00:23;;;;;;;70.95;43.73;;;;;;;6.27;66.94;100652.14;1735642;81;21224;-61
2023/03/22 04:03:40;;;;;;;74.25;43.13;;;;;;;6.35;67.31;100659.58;1720261;82;21239;-60
2023/03/22 04:06:55;;;;;;;71.47;43.35;;;;;;;6.45;67.55;100656.37;1711086;81;21740;-60
2023/03/22 04:10:02;;;;;;;75.95;44.45;;;;;;;6.54;67.72;100656.37;1735822;82;21172;-60
2023/03/22 04:13:09;;;;;;;77.22;45.00;;;;;;;6.62;67.81;100654.28;1735713;82;21174;-60
2023/03/22 04:16:16;;;;;;;75.22;43.60;;;;;;;6.70;67.84;100660.73;1735756;81;21212;-62
2023/03/22 04:19:23;;;;;;;70.57;44.42;;;;;;;6.75;67.84;100667.09;1735630;82;21216;-62
2023/03/22 04:22:33;;;;;;;76.97;45.67;;;;;;;6.78;67.79;100659.51;1736325;81;21287;-62
2023/03/22 04:25:38;;;;;;;98.22;53.83;;;;;;;6.81;67.76;100666.51;1717995;81;21228;-63
2023/03/22 04:28:48;;;;;;;129.57;66.70;;;;;;;6.84;67.74;100679.82;1736210;82;21244;-63
2023/03/22 04:31:55;;;;;;;112.70;62.90;;;;;;;6.81;67.66;100679.62;1735857;81;21331;-64
2023/03/22 04:35:03;;;;;;;111.40;57.65;;;;;;;6.77;67.61;100682.78;1735638;82;21156;-63
2023/03/22 04:38:09;;;;;;;117.53;64.00;;;;;;;6.78;67.68;100690.80;1735889;82;21240;-63
2023/03/22 04:41:15;;;;;;;109.42;57.78;;;;;;;6.82;67.72;100694.93;1735496;82;21204;-63
2023/03/22 04:44:22;;;;;;;83.37;50.58;;;;;;;6.86;67.78;100698.23;1735920;81;21213;-63
2023/03/22 04:47:29;;;;;;;81.55;47.73;;;;;;;6.90;67.75;100704.59;1735404;81;21196;-62
2023/03/22 04:50:36;;;;;;;71.92;44.10;;;;;;;6.95;67.81;100698.71;1735860;81;21239;-62
2023/03/22 04:53:44;;;;;;;70.25;44.00;;;;;;;6.99;67.83;100696.91;1735143;82;21204;-62
2023/03/22 04:56:50;;;;;;;72.40;44.48;;;;;;;7.04;67.88;100702.78;1735239;82;21284;-62
2023/03/22 04:59:57;;;;;;;71.97;43.23;;;;;;;7.10;67.94;100704.08;1734969;82;21255;-62
2023/03/22 05:03:04;;;;;;;73.35;43.35;;;;;;;7.13;67.89;100706.02;1737817;81;21293;-63
2023/03/22 05:06:12;;;;;;;72.45;43.02;;;;;;;7.13;67.72;100711.45;1742238;80;21189;-62
2023/03/22 05:09:21;;;;;;;72.80;46.08;;;;;;;7.15;67.72;100717.59;1741921;82;21269;-64
2023/03/22 05:12:28;;;;;;;72.08;44.00;;;;;;;7.22;67.80;100722.82;1740137;82;21225;-63
2023/03/22 05:15:46;;;;;;;68.83;43.00;;;;;;;7.27;67.77;100720.52;1740597;81;21252;-63
2023/03/22 05:18:54;;;;;;;84.80;44.93;;;;;;;7.33;67.82;100719.93;1740317;82;21605;-63
2023/03/22 05:22:00;;;;;;;79.90;44.77;;;;;;;7.41;67.86;100729.59;1739579;80;21280;-62
2023/03/22 05:25:09;;;;;;;73.60;44.60;;;;;;;7.50;67.85;100736.86;1739998;81;21713;-63
2023/03/22 05:28:14;;;;;;;79.82;45.60;;;;;;;7.59;67.77;100723.70;1740089;81;21217;-63
2023/03/22 05:31:27;;;;;;;76.87;45.17;;;;;;;7.69;67.69;100722.31;1740111;81;21227;-63
2023/03/22 05:34:34;;;;;;;74.32;45.65;;;;;;;7.83;67.77;100719.62;1740729;81;21206;-62
2023/03/22 05:37:26;;;;;;;93.90;58.33;;;;;;;8.00;67.95;100718.81;1741054;82;21197;-64
2023/03/22 05:40:13;;;;;;;80.47;50.52;;;;;;;8.18;68.09;100720.56;1738397;81;21201;-63
2023/03/22 05:43:07;;;;;;;82.88;50.67;;;;;;;8.38;68.22;100717.26;1740752;81;21847;-63
2023/03/22 05:46:18;;;;;;;96.78;55.15;;;;;;;8.58;68.24;100729.73;1740009;81;21750;-63
2023/03/22 05:49:31;;;;;;;79.65;46.45;;;;;;;8.77;68.18;100732.33;1730959;81;21189;-63
2023/03/22 05:52:38;;;;;;;68.07;42.75;;;;;;;8.96;68.18;100732.16;1747570;81;21190;-63
2023/03/22 05:55:51;;;;;;;66.45;42.53;;;;;;;9.09;68.18;100729.90;1765919;81;21228;-62
2023/03/22 05:58:57;;;;;;;85.38;50.85;;;;;;;9.16;68.01;100726.90;1757968;79;21734;-62
2023/03/22 06:02:03;;;;;;;75.35;45.05;;;;;;;9.20;67.89;100733.74;1735254;82;21209;-60
2023/03/22 06:05:10;;;;;;;67.15;43.15;;;;;;;9.28;67.90;100731.08;1720107;82;21218;-61
2023/03/22 06:08:15;;;;;;;66.45;43.30;;;;;;;9.32;67.99;100726.16;1706090;83;21218;-62
2023/03/22 06:11:22;;;;;;;66.72;43.55;;;;;;;9.35;67.94;100732.17;1720053;82;21285;-62
2023/03/22 06:14:28;;;;;;;62.67;42.05;;;;;;;9.37;67.88;100734.21;1715919;83;21740;-62
2023/03/22 06:17:38;;;;;;;71.45;44.85;;;;;;;9.44;67.84;100735.30;1707712;83;21240;-63
2023/03/22 06:20:46;;;;;;;62.45;41.15;;;;;;;9.55;68.00;100733.67;1704038;83;22073;-63
2023/03/22 06:23:52;;;;;;;66.42;41.25;;;;;;;9.67;68.12;100733.73;1718744;83;21793;-62
2023/03/22 06:26:58;;;;;;;65.08;40.60;;;;;;;9.77;68.18;100734.48;1710463;83;21196;-62
2023/03/22 06:30:04;;;;;;;77.25;46.10;;;;;;;9.86;68.24;100734.87;1717467;81;21318;-64
2023/03/22 06:33:15;;;;;;;68.60;40.28;;;;;;;9.91;68.24;100733.88;1700328;83;21224;-63
2023/03/22 06:36:26;;;;;;;68.52;43.73;;;;;;;9.97;68.23;100732.37;1711110;83;21229;-62
2023/03/22 06:39:35;;;;;;;61.50;38.55;;;;;;;10.00;68.24;100731.55;1674243;85;21773;-64
2023/03/22 06:42:43;;;;;;;53.65;36.65;;;;;;;10.05;68.30;100731.89;1662748;84;21215;-64
2023/03/22 06:46:00;;;;;;;54.35;34.98;;;;;;;10.12;68.33;100734.86;1730558;81;22085;-64
2023/03/22 06:49:11;;;;;;;59.90;34.95;;;;;;;10.16;68.32;100731.63;1710153;83;21282;-64
2023/03/22 06:52:22;;;;;;;60.65;36.88;;;;;;;10.22;68.40;100728.27;1712137;83;21765;-64
2023/03/22 06:55:32;;;;;;;56.37;34.23;;;;;;;10.29;68.45;100740.77;1702935;82;21852;-56
2023/03/22 06:58:41;;;;;;;53.87;34.33;;;;;;;10.35;68.33;100737.37;1705322;82;21250;-60
2023/03/22 07:01:48;;;;;;;71.62;34.30;;;;;;;10.43;68.34;100730.02;1705981;83;21265;-60
2023/03/22 07:04:57;;;;;;;46.48;31.05;;;;;;;10.58;68.40;100738.45;1705537;83;21221;-60
2023/03/22 07:08:02;;;;;;;55.23;32.17;;;;;;;10.71;68.49;100741.56;1707264;82;21210;-60
2023/03/22 07:11:14;;;;;;;52.38;33.92;;;;;;;10.84;68.52;100736.97;1703813;82;21806;-64
2023/03/22 07:14:22;;;;;;;45.38;32.40;;;;;;;10.96;68.63;100740.58;1696739;83;22130;-63
2023/03/22 07:17:29;;;;;;;53.02;32.33;;;;;;;11.07;68.58;100753.11;1709007;83;21240;-63
2023/03/22 07:20:40;;;;;;;55.40;33.73;;;;;;;11.12;68.56;100754.80;1698474;82;21235;-64
2023/03/22 07:23:46;;;;;;;44.53;31.07;;;;;;;11.20;68.63;100747.95;1715123;82;21248;-64
2023/03/22 07:26:57;;;;;;;49.93;32.03;;;;;;;11.28;68.67;100752.94;1715831;82;21327;-62
2023/03/22 07:30:04;;;;;;;47.58;31.12;;;;;;;11.39;68.77;100748.47;1767849;81;21224;-63
2023/03/22 07:33:12;;;;;;;52.13;30.57;;;;;;;11.53;68.83;100745.03;1768135;80;21790;-63
2023/03/22 07:36:24;;;;;;;47.33;31.52;;;;;;;11.65;68.83;100740.92;1766926;79;21378;-63
2023/03/22 07:39:32;;;;;;;50.33;29.92;;;;;;;11.77;68.88;100738.17;1759089;81;21209;-63
2023/03/22 07:42:40;;;;;;;47.23;30.52;;;;;;;11.90;68.89;100737.63;1768289;80;21225;-63
2023/03/22 07:45:48;;;;;;;45.30;29.60;;;;;;;11.98;68.90;100740.34;1766983;79;21221;-64
2023/03/22 07:49:06;;;;;;;50.55;29.85;;;;;;;12.07;68.92;100740.65;1755774;79;21693;-63
2023/03/22 07:52:28;;;;;;;45.45;30.12;;;;;;;12.18;69.00;100738.89;1766719;81;21205;-64
2023/03/22 07:55:33;;;;;;;42.45;29.32;;;;;;;12.31;69.03;100736.95;1770460;79;21202;-62
2023/03/22 07:58:39;;;;;;;40.73;28.35;;;;;;;12.43;69.10;100741.86;1759891;81;21237;-63
2023/03/22 08:01:45;;;;;;;44.40;27.05;;;;;;;12.56;69.26;100739.41;1770969;79;21358;-63
2023/03/22 08:05:00;;;;;;;36.80;25.17;;;;;;;12.69;69.27;100749.80;1733811;81;21207;-64
2023/03/22 08:08:15;;;;;;;42.75;26.33;;;;;;;12.81;69.26;100747.83;1766435;81;21746;-63
2023/03/22 08:11:21;;;;;;;34.50;23.52;;;;;;;12.89;69.17;100752.45;1766626;79;21263;-62
2023/03/22 08:14:27;;;;;;;32.67;23.85;;;;;;;13.00;69.17;100754.77;1770824;80;21206;-64
2023/03/22 08:17:38;;;;;;;32.40;21.90;;;;;;;13.07;69.14;100752.51;1767099;81;21252;-64
2023/03/22 08:20:48;;;;;;;34.50;23.42;;;;;;;13.18;69.19;100755.34;1771382;79;21731;-64
2023/03/22 08:23:56;;;;;;;36.90;21.90;;;;;;;13.25;69.00;100751.70;1771995;79;21178;-65
2023/03/22 08:27:13;;;;;;;31.10;21.23;;;;;;;13.31;68.99;100746.83;1763463;80;21201;-64
2023/03/22 08:30:23;;;;;;;33.23;22.65;;;;;;;13.39;69.01;100744.52;1766368;81;21221;-64
2023/03/22 08:33:29;;;;;;;34.83;22.80;;;;;;;13.45;68.91;100740.52;1766548;80;21187;-64
2023/03/22 08:36:35;;;;;;;30.60;21.00;;;;;;;13.54;68.91;100740.77;1725552;81;21791;-64
2023/03/22 08:39:50;;;;;;;30.43;20.35;;;;;;;13.62;68.92;100742.57;1712637;82;21226;-64
2023/03/22 08:42:59;;;;;;;32.80;21.80;;;;;;;13.73;68.97;100741.28;1716838;83;21288;-63
2023/03/22 08:46:06;;;;;;;31.97;20.12;;;;;;;13.84;68.93;100730.69;1712637;83;21210;-63
2023/03/22 08:49:14;;;;;;;26.05;17.92;;;;;;;13.96;68.91;100731.05;1719971;83;21218;-64
2023/03/22 08:52:22;;;;;;;31.50;19.85;;;;;;;14.07;68.84;100736.08;1699361;83;21500;-63
2023/03/22 08:55:34;;;;;;;32.10;19.37;;;;;;;14.19;68.83;100733.20;1764293;79;21225;-64
2023/03/22 08:58:45;;;;;;;31.25;18.27;;;;;;;14.30;68.62;100738.27;1766405;81;21335;-63
2023/03/22 09:02:13;;;;;;;32.08;20.82;;;;;;;14.35;68.52;100731.66;1726668;82;21264;-64
2023/03/22 09:05:25;;;;;;;31.50;20.57;;;;;;;14.44;68.36;100733.25;1729136;81;21291;-63
2023/03/22 09:08:35;;;;;;;34.25;19.77;;;;;;;14.49;68.35;100737.67;1752572;81;21275;-62
2023/03/22 09:11:46;;;;;;;28.40;19.05;;;;;;;14.61;68.37;100737.49;1767287;79;21263;-64
2023/03/22 09:14:55;;;;;;;28.67;20.20;;;;;;;14.71;68.26;100738.05;1767537;81;21190;-59
2023/03/22 09:18:02;;;;;;;28.98;18.25;;;;;;;14.81;68.21;100735.30;1763913;80;21194;-60
2023/03/22 09:21:08;;;;;;;26.55;17.85;;;;;;;14.91;68.10;100737.75;1767538;79;21193;-60
2023/03/22 09:24:17;;;;;;;23.83;16.93;;;;;;;15.03;68.04;100741.72;1766175;81;21173;-61
2023/03/22 09:27:26;;;;;;;23.98;15.48;;;;;;;15.09;67.77;100740.92;1761368;79;21209;-63
2023/03/22 09:30:33;;;;;;;24.65;17.70;;;;;;;15.15;67.59;100736.51;1753451;79;21212;-62
2023/03/22 09:33:41;;;;;;;28.52;17.87;;;;;;;15.20;67.42;100728.51;1765015;80;21786;-61
2023/03/22 09:36:47;;;;;;;26.37;18.27;;;;;;;15.26;67.38;100728.58;1754365;79;21527;-62
2023/03/22 09:39:56;;;;;;;32.13;19.42;;;;;;;15.37;67.48;100723.91;1741509;81;21200;-64
2023/03/22 09:43:10;;;;;;;25.37;17.77;;;;;;;15.48;67.37;100723.39;1762022;81;21193;-63
2023/03/22 09:46:20;;;;;;;25.95;16.37;;;;;;;15.60;67.34;100731.45;1767052;79;21551;-63
2023/03/22 09:49:32;;;;;;;25.77;17.85;;;;;;;15.72;67.09;100717.96;1764816;79;21165;-64
2023/03/22 09:52:39;;;;;;;25.40;16.42;;;;;;;15.78;66.85;100724.91;1711475;82;21212;-62
2023/03/22 09:55:58;;;;;;;21.70;16.02;;;;;;;15.87;66.81;100734.73;1724795;82;21267;-62
2023/03/22 09:59:17;;;;;;;21.87;15.18;;;;;;;15.98;66.72;100725.89;1696417;83;21218;-62
2023/03/22 10:02:50;;;;;;;28.67;16.27;;;;;;;16.07;66.52;100721.08;1710982;83;21909;-62
2023/03/22 10:06:09;;;;;;;24.92;15.63;;;;;;;16.20;66.43;100716.50;1719726;82;21213;-61
2023/03/22 10:09:32;;;;;;;27.27;15.53;;;;;;;16.30;66.20;100719.72;1783545;80;21245;-59
2023/03/22 10:12:46;;;;;;;25.77;15.78;;;;;;;16.38;66.02;100711.78;1759085;80;21216;-60
2023/03/22 10:16:00;;;;;;;24.02;16.55;;;;;;;16.43;65.76;100714.79;1765451;79;21797;-60
2023/03/22 10:19:16;;;;;;;30.55;16.02;;;;;;;16.52;65.76;100708.59;1753997;80;21185;-61
2023/03/22 10:22:24;;;;;;;25.10;15.78;;;;;;;16.66;65.62;100702.92;1754348;81;21229;-60
2023/03/22 10:25:32;;;;;;;20.75;15.30;;;;;;;16.78;65.41;100706.78;1768650;80;21249;-60
2023/03/22 10:28:49;;;;;;;21.85;15.48;;;;;;;16.86;65.20;100708.49;1770375;80;21198;-61
2023/03/22 10:31:54;;;;;;;22.90;15.18;;;;;;;16.96;65.05;100707.57;1767453;81;21218;-61
2023/03/22 10:35:01;;;;;;;19.17;14.73;;;;;;;17.09;64.87;100714.00;1758357;81;21414;-61
2023/03/22 10:38:10;;;;;;;26.48;15.48;;;;;;;17.22;64.68;100697.95;1767784;81;21186;-61
2023/03/22 10:41:18;;;;;;;24.25;15.05;;;;;;;17.38;64.42;100695.61;1769994;80;21300;-61
2023/03/22 10:44:24;;;;;;;23.22;16.37;;;;;;;17.49;64.12;100697.77;1769673;81;21201;-61
2023/03/22 10:48:00;;;;;;;22.42;15.70;;;;;;;17.60;63.94;100698.52;1768432;81;21563;-61
2023/03/22 10:51:09;;;;;;;21.60;15.83;;;;;;;17.60;63.68;100700.45;1760886;81;21217;-61
2023/03/22 10:54:23;;;;;;;21.02;15.70;;;;;;;17.65;63.47;100693.19;1761524;80;21702;-61
2023/03/22 10:57:32;;;;;;;21.05;15.48;;;;;;;17.75;63.31;100690.84;1760682;80;21662;-57
2023/03/22 11:00:38;;;;;;;23.10;16.93;;;;;;;17.88;63.04;100692.75;1762123;79;21197;-56
2023/03/22 11:03:56;;;;;;;23.45;17.27;;;;;;;18.02;62.95;100696.33;1706335;82;21309;-56
2023/03/22 11:07:04;;;;;;;23.77;15.63;;;;;;;18.12;62.76;100689.30;1732083;82;21204;-54
2023/03/22 11:10:21;;;;;;;18.67;14.65;;;;;;;18.26;62.68;100690.09;1707237;82;21387;-56
2023/03/22 11:13:32;;;;;;;;;;;;;;;18.34;62.48;100686.55;1718337;83;21217;-57
2023/03/22 11:16:41;;;;;;;26.70;14.73;;;;;;;18.39;62.08;100690.08;1714412;83;20844;-55
2023/03/22 11:19:49;;;;;;;26.15;15.70;;;;;;;18.34;61.68;100687.94;1697632;82;21210;-57
2023/03/22 11:22:56;;;;;;;25.35;16.60;;;;;;;18.48;61.60;100684.60;1710767;83;21217;-56
2023/03/22 11:26:06;;;;;;;23.22;15.13;;;;;;;18.73;61.67;100675.84;1692736;83;21240;-55
2023/03/22 11:29:24;;;;;;;21.70;16.10;;;;;;;19.07;61.65;100677.68;1707658;82;21335;-55
2023/03/22 11:32:45;;;;;;;20.72;14.40;;;;;;;19.36;61.43;100681.74;1749435;80;21181;-56
2023/03/22 11:35:56;;;;;;;23.47;15.48;;;;;;;19.58;61.12;100686.39;1761662;81;21302;-57
2023/03/22 11:39:08;;;;;;;18.23;13.35;;;;;;;19.75;60.61;100677.78;1760077;80;21488;-57
2023/03/22 11:42:17;;;;;;;22.60;15.55;;;;;;;19.93;60.29;100682.00;1744992;80;21213;-57
2023/03/22 11:45:44;;;;;;;19.87;14.07;;;;;;;20.12;59.91;100677.60;1763543;79;21260;-56
2023/03/22 11:48:51;;;;;;;17.37;14.47;;;;;;;20.26;59.48;100682.52;1765663;81;21214;-55
2023/03/22 11:51:59;;;;;;;18.67;14.25;;;;;;;20.39;59.03;100679.59;1750073;80;21213;-56
2023/03/22 11:55:07;;;;;;;21.52;15.40;;;;;;;20.46;58.81;100678.42;1740235;81;21228;-58
2023/03/22 11:58:13;;;;;;;20.90;13.78;;;;;;;20.54;58.33;100681.42;1760707;79;21181;-57
2023/03/22 12:01:47;;;;;;;19.70;14.80;;;;;;;20.61;57.86;100673.86;1764657;79;21263;-59
2023/03/22 12:04:59;;;;;;;17.10;14.18;;;;;;;20.67;57.49;100669.59;1771936;80;21209;-58
2023/03/22 12:08:14;;;;;;;21.65;14.93;;;;;;;20.66;57.11;100672.05;1771421;79;21331;-57
2023/03/22 12:11:39;;;;;;;20.75;14.80;;;;;;;20.75;57.07;100668.42;1760242;79;21224;-59
2023/03/22 12:15:10;;;;;;;21.30;14.73;;;;;;;20.65;56.69;100663.41;1715133;82;21212;-59
2023/03/22 12:18:21;;;;;;;24.30;16.77;;;;;;;20.44;56.44;100661.11;1763464;79;21363;-59
2023/03/22 12:21:29;;;;;;;22.77;16.23;;;;;;;20.24;56.28;100661.05;1767898;79;21252;-59
2023/03/22 12:24:37;;;;;;;20.70;15.25;;;;;;;20.02;56.05;100659.23;1755729;81;21193;-59
2023/03/22 12:27:49;;;;;;;22.95;16.52;;;;;;;19.86;55.95;100674.25;1750795;81;21978;-58
2023/03/22 12:31:00;;;;;;;23.27;16.62;;;;;;;19.69;55.79;100667.59;1768479;79;21333;-59
2023/03/22 12:34:11;;;;;;;25.05;15.72;;;;;;;19.59;55.67;100663.08;1704290;82;21805;-59
2023/03/22 12:37:21;;;;;;;26.23;16.65;;;;;;;19.49;55.46;100662.20;1740354;80;21348;-57
2023/03/22 12:40:38;;;;;;;22.60;17.05;;;;;;;19.34;55.10;100660.32;1742030;81;21201;-58
2023/03/22 12:44:02;;;;;;;23.87;16.25;;;;;;;19.22;54.91;100654.60;1718679;82;21284;-58
2023/03/22 12:47:23;;;;;;;19.85;15.43;;;;;;;19.12;54.77;100652.02;1768386;80;21273;-58
2023/03/22 12:50:40;;;;;;;18.67;15.13;;;;;;;19.00;54.59;100649.11;1759815;79;21216;-59
2023/03/22 12:53:57;;;;;;;23.25;16.12;;;;;;;18.92;54.40;100649.38;1759075;80;21197;-57
2023/03/22 12:57:03;;;;;;;20.10;15.20;;;;;;;18.80;54.01;100652.56;1745563;80;21566;-58
2023/03/22 13:00:16;;;;;;;25.48;17.80;;;;;;;18.70;53.91;100650.80;1727925;82;21800;-58
2023/03/22 13:03:28;;;;;;;27.97;19.73;;;;;;;18.67;53.76;100647.61;1758301;80;21227;-58
2023/03/22 13:06:55;;;;;;;28.00;19.05;;;;;;;18.66;53.61;100648.13;1761919;79;21317;-58
2023/03/22 13:10:02;;;;;;;25.45;16.85;;;;;;;18.72;53.52;100648.66;1738581;81;21260;-58
2023/03/22 13:13:29;;;;;;;20.37;15.25;;;;;;;18.84;53.35;100646.86;1758459;81;21201;-59
2023/03/22 13:16:58;;;;;;;26.37;16.35;;;;;;;18.88;53.25;100645.89;1751291;80;21205;-57
2023/03/22 13:20:20;;;;;;;24.45;17.90;;;;;;;18.88;53.06;100645.36;1768112;80;21240;-58
2023/03/22 13:23:33;;;;;;;25.45;18.10;;;;;;;18.85;52.89;100646.34;1766560;80;21189;-58
2023/03/22 13:26:58;;;;;;;23.27;17.17;;;;;;;18.80;52.81;100652.56;1765646;79;21228;-59
2023/03/22 13:30:09;;;;;;;24.87;17.95;;;;;;;18.75;52.68;100645.96;1761495;79;21158;-59
2023/03/22 13:33:19;;;;;;;23.50;17.37;;;;;;;18.72;52.48;100645.88;1762871;79;21158;-60
2023/03/22 13:36:30;;;;;;;;;;;;;;;18.63;52.15;100642.20;1756434;81;21264;-57
2023/03/22 13:39:45;;;;;;;24.67;17.35;;;;;;;18.54;51.99;100640.73;1737612;82;20208;-58
2023/03/22 13:42:50;;;;;;;25.97;16.42;;;;;;;18.42;51.92;100639.22;1739226;81;21625;-58
2023/03/22 13:46:28;;;;;;;22.87;16.90;;;;;;;18.34;51.78;100642.20;1746888;81;21633;-59
2023/03/22 13:49:53;;;;;;;21.45;17.75;;;;;;;18.28;51.68;100640.84;1757850;80;21185;-59
2023/03/22 13:53:13;;;;;;;19.90;16.75;;;;;;;18.25;51.56;100647.66;1756079;81;21205;-57
2023/03/22 13:56:20;;;;;;;23.65;17.73;;;;;;;18.20;51.46;100650.26;1749361;79;21571;-58
2023/03/22 13:59:40;;;;;;;27.67;17.75;;;;;;;18.16;51.35;100648.97;1762712;81;21193;-58
2023/03/22 14:02:49;;;;;;;29.12;17.90;;;;;;;18.13;51.30;100649.41;1750915;81;21264;-59
2023/03/22 14:05:54;;;;;;;25.85;18.87;;;;;;;18.12;51.24;100642.19;1762880;80;21550;-59
2023/03/22 14:09:05;;;;;;;22.67;17.48;;;;;;;18.17;51.18;100642.35;1758981;79;21765;-58
2023/03/22 14:12:24;;;;;;;26.62;18.82;;;;;;;18.35;51.25;100649.96;1764350;80;22116;-58
2023/03/22 14:15:39;;;;;;;26.15;18.25;;;;;;;18.58;51.17;100645.64;1765337;79;21831;-59
2023/03/22 14:18:48;;;;;;;25.48;17.87;;;;;;;18.75;51.01;100658.45;1760201;81;21781;-61
2023/03/22 14:22:00;;;;;;;25.92;17.52;;;;;;;18.85;50.88;100656.05;1754256;79;21191;-57
2023/03/22 14:25:07;;;;;;;25.57;18.50;;;;;;;18.84;50.68;100657.96;1766069;79;21252;-59
2023/03/22 14:28:15;;;;;;;32.28;18.17;;;;;;;18.74;50.39;100657.58;1763572;81;21722;-60
2023/03/22 14:31:35;;;;;;;25.37;17.90;;;;;;;18.65;50.18;100650.60;1768133;79;21260;-59
2023/03/22 14:34:41;;;;;;;28.77;17.70;;;;;;;18.60;50.05;100650.97;1756418;80;22158;-59